Time;durP1;ratioP1;P1;durP2;ratioP2;P2;SDS_P1;SDS_P2;PMS_P1;PMS_P2;Temp;Humidity;BMP_temperature;BMP_pressure;BME280_temperature;BME280_humidity;BME280_pressure;Samples;Min_cycle;Max_cycle;Signal;HPM_P1;HPM_P2
2024/04/12 00:01:02;;;;;;;9.63;5.13;;;14.00;99.90;;;;;;5397251;26;20011;-75
2024/04/12 00:03:28;;;;;;;9.82;5.40;;;14.00;99.90;;;;;;5399152;26;20000;-75
2024/04/12 00:05:54;;;;;;;12.20;4.85;;;14.00;99.90;;;;;;5394598;26;20031;-75
2024/04/12 00:08:29;;;;;;;11.73;5.57;;;14.00;99.90;;;;;;5392632;26;20076;-75
2024/04/12 00:10:56;;;;;;;10.40;5.05;;;14.00;99.90;;;;;;5391155;26;20489;-75
2024/04/12 00:13:26;;;;;;;9.95;5.32;;;14.00;99.90;;;;;;5397544;26;20569;-75
2024/04/12 00:15:55;;;;;;;8.68;4.85;;;14.00;99.90;;;;;;5390327;26;20015;-75
2024/04/12 00:18:28;;;;;;;8.63;4.15;;;13.90;99.90;;;;;;5391507;26;20010;-75
2024/04/12 00:20:58;;;;;;;8.82;4.32;;;14.00;99.90;;;;;;5385324;26;20018;-75
2024/04/12 00:23:30;;;;;;;6.43;3.35;;;14.00;99.90;;;;;;5383440;26;20012;-75
2024/04/12 00:26:03;;;;;;;5.40;3.08;;;14.00;99.90;;;;;;5387894;26;20000;-76
2024/04/12 00:28:36;;;;;;;5.57;3.28;;;14.00;99.90;;;;;;5402091;26;20458;-75
2024/04/12 00:31:06;;;;;;;5.40;3.10;;;14.00;99.90;;;;;;5391399;26;20821;-75
2024/04/12 00:33:33;;;;;;;5.95;3.15;;;13.90;99.90;;;;;;5390840;26;20015;-75
2024/04/12 00:36:07;;;;;;;4.07;2.63;;;13.90;99.90;;;;;;5401632;26;20011;-76
2024/04/12 00:38:35;;;;;;;4.45;2.72;;;14.00;99.90;;;;;;5392211;26;20324;-75
2024/04/12 00:41:14;;;;;;;6.22;2.97;;;14.00;99.90;;;;;;5396492;26;20102;-75
2024/04/12 00:43:45;;;;;;;5.05;3.10;;;13.90;99.90;;;;;;5397254;26;20007;-75
2024/04/12 00:46:18;;;;;;;6.72;3.30;;;13.90;99.90;;;;;;5395002;26;20085;-75
2024/04/12 00:48:45;;;;;;;6.63;3.38;;;14.00;99.90;;;;;;5388936;26;20012;-75
2024/04/12 00:51:16;;;;;;;6.15;3.38;;;13.90;99.90;;;;;;5388317;26;20019;-75
2024/04/12 00:53:56;;;;;;;6.03;3.05;;;13.90;99.90;;;;;;5394677;26;20467;-75
2024/04/12 00:56:23;;;;;;;4.22;2.40;;;13.90;99.90;;;;;;5388838;26;20077;-75
2024/04/12 00:58:49;;;;;;;5.47;2.20;;;13.90;99.90;;;;;;5385909;26;20012;-74
2024/04/12 01:01:15;;;;;;;3.95;2.03;;;13.90;99.90;;;;;;5386266;26;20004;-75
2024/04/12 01:03:53;;;;;;;3.00;1.52;;;13.90;99.90;;;;;;5392584;26;20004;-75
2024/04/12 01:06:24;;;;;;;3.00;1.50;;;13.90;99.90;;;;;;5398891;26;20014;-76
2024/04/12 01:08:57;;;;;;;1.83;1.13;;;13.90;99.90;;;;;;5388564;26;20004;-74
2024/04/12 01:11:25;;;;;;;2.75;1.27;;;13.90;99.90;;;;;;5400731;26;20000;-75
2024/04/12 01:13:52;;;;;;;2.95;1.50;;;13.80;99.90;;;;;;5390627;26;20004;-75
2024/04/12 01:16:18;;;;;;;2.95;1.42;;;13.80;99.90;;;;;;5378076;26;20001;-75
2024/04/12 01:18:45;;;;;;;2.58;1.50;;;13.80;99.90;;;;;;5417360;26;20004;-75
2024/04/12 01:21:11;;;;;;;3.45;1.83;;;13.80;99.90;;;;;;5398594;26;20012;-75
2024/04/12 01:23:44;;;;;;;3.20;1.73;;;13.80;99.90;;;;;;5390043;26;20528;-75
2024/04/12 01:26:11;;;;;;;3.60;2.10;;;13.80;99.90;;;;;;5393047;26;20000;-75
2024/04/12 01:28:38;;;;;;;5.30;2.20;;;13.80;99.90;;;;;;5388318;26;20031;-75
2024/04/12 01:31:05;;;;;;;3.50;1.83;;;13.80;99.90;;;;;;5418295;26;20443;-75
2024/04/12 01:33:34;;;;;;;4.95;2.53;;;13.70;99.90;;;;;;5406327;26;20000;-75
2024/04/12 01:36:05;;;;;;;3.53;1.88;;;13.70;99.90;;;;;;5391357;26;20008;-74
2024/04/12 01:38:37;;;;;;;3.55;1.98;;;13.70;99.90;;;;;;5392105;26;20014;-75
2024/04/12 01:41:05;;;;;;;5.03;2.63;;;13.70;99.90;;;;;;5379914;26;20039;-76
2024/04/12 01:43:35;;;;;;;4.22;2.20;;;13.70;99.90;;;;;;5405778;26;20011;-75
2024/04/12 01:46:04;;;;;;;6.75;3.20;;;13.70;99.90;;;;;;5408631;26;20003;-75
2024/04/12 01:48:33;;;;;;;4.88;2.83;;;13.80;99.90;;;;;;5391299;26;20007;-75
2024/04/12 01:51:02;;;;;;;4.70;2.50;;;13.80;99.90;;;;;;5397055;26;20313;-75
2024/04/12 01:53:28;;;;;;;5.97;3.33;;;13.80;99.90;;;;;;5401991;26;20030;-75
2024/04/12 01:55:55;;;;;;;5.70;3.08;;;13.70;99.90;;;;;;5398160;26;20342;-74
2024/04/12 01:58:20;;;;;;;5.22;2.78;;;13.70;99.90;;;;;;5393749;26;20046;-75
2024/04/12 02:00:47;;;;;;;5.57;3.03;;;13.80;99.90;;;;;;5390641;26;20008;-75
2024/04/12 02:03:13;;;;;;;6.72;3.30;;;13.80;99.90;;;;;;5402862;26;20019;-74
2024/04/12 02:05:38;;;;;;;7.07;3.67;;;13.80;99.90;;;;;;5409216;26;20001;-74
2024/04/12 02:08:16;;;;;;;5.40;2.83;;;13.70;99.90;;;;;;5388251;26;19996;-75
2024/04/12 02:10:44;;;;;;;6.03;3.17;;;13.70;99.90;;;;;;5390356;26;19999;-74
2024/04/12 02:13:17;;;;;;;6.47;3.30;;;13.70;99.90;;;;;;5401066;26;20363;-75
2024/04/12 02:15:43;;;;;;;7.53;3.42;;;13.70;99.90;;;;;;5392246;26;20007;-74
2024/04/12 02:18:13;;;;;;;7.63;3.38;;;13.80;99.90;;;;;;5402929;26;20040;-75
2024/04/12 02:20:45;;;;;;;5.05;2.75;;;13.80;99.90;;;;;;5404656;26;20000;-74
2024/04/12 02:23:14;;;;;;;5.60;2.78;;;13.70;99.90;;;;;;5402981;26;20491;-75
2024/04/12 02:25:41;;;;;;;5.38;2.60;;;13.80;99.90;;;;;;5395256;26;20046;-75
2024/04/12 02:28:12;;;;;;;5.78;2.20;;;13.70;99.90;;;;;;5396894;26;20078;-75
2024/04/12 02:30:44;;;;;;;7.53;2.17;;;13.70;99.90;;;;;;5389142;26;20086;-75
2024/04/12 02:33:14;;;;;;;3.97;1.90;;;13.70;99.90;;;;;;5393623;26;20014;-75
2024/04/12 02:35:43;;;;;;;2.88;1.20;;;13.70;99.90;;;;;;5384923;26;20001;-75
2024/04/12 02:38:21;;;;;;;4.35;1.90;;;13.70;99.90;;;;;;5401169;26;20463;-75
2024/04/12 02:40:48;;;;;;;4.78;2.15;;;13.70;99.90;;;;;;5395589;26;19999;-74
2024/04/12 02:43:15;;;;;;;4.57;2.30;;;13.70;99.90;;;;;;5395267;26;20022;-74
2024/04/12 02:45:55;;;;;;;2.40;1.60;;;13.80;99.90;;;;;;5401113;26;20019;-75
2024/04/12 02:48:21;;;;;;;4.97;2.20;;;13.70;99.90;;;;;;5387020;26;20019;-76
2024/04/12 02:50:54;;;;;;;2.70;1.75;;;13.70;99.90;;;;;;5403320;26;20342;-75
2024/04/12 02:53:29;;;;;;;12.52;2.03;;;13.80;99.90;;;;;;5393372;26;20006;-75
2024/04/12 02:56:09;;;;;;;3.38;1.80;;;13.80;99.90;;;;;;5384356;26;20047;-75
2024/04/12 02:58:42;;;;;;;3.47;2.08;;;13.80;99.90;;;;;;5390576;26;20004;-75
2024/04/12 03:01:27;;;;;;;3.00;1.48;;;13.80;99.90;;;;;;5393682;26;20005;-75
2024/04/12 03:03:55;;;;;;;3.00;1.48;;;13.70;99.90;;;;;;5392106;26;20084;-75
2024/04/12 03:06:23;;;;;;;2.95;1.70;;;13.70;99.90;;;;;;5384850;26;20004;-75
2024/04/12 03:08:52;;;;;;;3.15;1.70;;;13.70;99.90;;;;;;5393008;26;20476;-74
2024/04/12 03:11:25;;;;;;;2.13;1.20;;;13.70;99.90;;;;;;5395276;26;20616;-75
2024/04/12 03:13:58;;;;;;;3.65;1.67;;;13.70;99.90;;;;;;5396710;26;20076;-74
2024/04/12 03:16:24;;;;;;;3.50;1.58;;;13.70;99.90;;;;;;5390412;26;20969;-76
2024/04/12 03:18:51;;;;;;;3.83;1.83;;;13.80;99.90;;;;;;5387896;26;20015;-75
2024/04/12 03:21:21;;;;;;;5.30;2.10;;;13.80;99.90;;;;;;5385425;26;20011;-75
2024/04/12 03:23:48;;;;;;;3.78;1.95;;;13.70;99.90;;;;;;5398027;26;20439;-75
2024/04/12 03:26:15;;;;;;;6.72;1.40;;;13.70;99.90;;;;;;5394085;26;20056;-75
2024/04/12 03:28:41;;;;;;;4.05;2.03;;;13.70;99.90;;;;;;5396621;26;20463;-75
2024/04/12 03:31:08;;;;;;;6.88;2.13;;;13.70;99.90;;;;;;5391854;26;20072;-75
2024/04/12 03:33:42;;;;;;;3.15;1.58;;;13.70;99.90;;;;;;5395858;26;20019;-75
2024/04/12 03:41:56;;;;;;;3.05;1.73;;;13.80;99.90;;;;;;5393977;26;20762;-75
2024/04/12 03:44:25;;;;;;;4.07;1.92;;;13.80;99.90;;;;;;5397541;26;20389;-75
2024/04/12 03:46:52;;;;;;;4.03;1.98;;;13.70;99.90;;;;;;5388438;26;20032;-75
2024/04/12 03:49:20;;;;;;;4.00;1.58;;;13.70;99.90;;;;;;5392081;26;20004;-75
2024/04/12 03:51:48;;;;;;;4.35;2.03;;;13.70;99.90;;;;;;5401355;26;20022;-75
2024/04/12 03:54:21;;;;;;;6.13;1.88;;;13.70;99.90;;;;;;5384778;26;20000;-75
2024/04/12 03:56:50;;;;;;;5.25;1.98;;;13.70;99.90;;;;;;5392857;26;20471;-75
2024/04/12 03:59:17;;;;;;;3.28;1.50;;;13.70;99.90;;;;;;5393049;26;20010;-75
2024/04/12 04:01:45;;;;;;;4.38;2.10;;;13.70;99.90;;;;;;5383304;26;20028;-75
2024/04/12 04:04:18;;;;;;;4.28;1.98;;;13.80;99.90;;;;;;5399408;26;20000;-76
2024/04/12 04:06:45;;;;;;;6.00;2.30;;;13.70;99.90;;;;;;5393822;26;20010;-75
2024/04/12 04:09:20;;;;;;;3.63;2.05;;;13.70;99.90;;;;;;5391784;26;20014;-75
2024/04/12 04:11:53;;;;;;;3.78;1.67;;;13.70;99.90;;;;;;5405026;26;20316;-75
2024/04/12 04:14:24;;;;;;;4.07;1.98;;;13.70;99.90;;;;;;5391152;26;20011;-75
2024/04/12 04:16:50;;;;;;;4.35;2.20;;;13.70;99.90;;;;;;5403938;26;20073;-75
2024/04/12 04:19:30;;;;;;;2.50;1.40;;;13.70;99.90;;;;;;5401471;26;20004;-75
2024/04/12 04:22:20;;;;;;;4.40;2.33;;;13.60;99.90;;;;;;5395175;26;20014;-74
2024/04/12 04:24:46;;;;;;;4.30;2.38;;;13.60;99.90;;;;;;5395022;26;20003;-75
2024/04/12 04:27:12;;;;;;;9.13;2.30;;;13.60;99.90;;;;;;5389322;26;20814;-75
2024/04/12 04:29:37;;;;;;;5.10;2.50;;;13.50;99.90;;;;;;5395944;26;20040;-74
2024/04/12 04:32:03;;;;;;;7.07;2.70;;;13.50;99.90;;;;;;5386396;26;20008;-75
2024/04/12 04:34:29;;;;;;;5.72;2.20;;;13.50;99.90;;;;;;5387932;26;20003;-75
2024/04/12 04:36:57;;;;;;;5.18;2.50;;;13.50;99.90;;;;;;5388588;26;19996;-75
2024/04/12 04:39:24;;;;;;;3.72;1.83;;;13.50;99.90;;;;;;5389206;26;20019;-75
2024/04/12 04:41:53;;;;;;;4.55;2.40;;;13.40;99.90;;;;;;5401153;26;20075;-75
2024/04/12 04:44:19;;;;;;;5.07;2.35;;;13.50;99.90;;;;;;5385389;26;20004;-75
2024/04/12 04:46:45;;;;;;;5.15;2.78;;;13.40;99.90;;;;;;5394600;26;20435;-75
2024/04/12 04:49:15;;;;;;;5.30;2.78;;;13.40;99.90;;;;;;5395513;26;20011;-75
2024/04/12 04:51:42;;;;;;;5.47;2.90;;;13.30;99.90;;;;;;5391667;26;19996;-75
2024/04/12 04:54:13;;;;;;;4.60;2.60;;;13.30;99.90;;;;;;5391005;26;20321;-76
2024/04/12 04:56:39;;;;;;;5.32;2.83;;;13.30;99.90;;;;;;5388539;26;20163;-75
2024/04/12 04:59:06;;;;;;;5.40;3.10;;;13.30;99.90;;;;;;5402316;26;20011;-75
2024/04/12 05:01:35;;;;;;;7.68;3.15;;;13.30;99.90;;;;;;5394083;26;20008;-74
2024/04/12 05:04:01;;;;;;;5.82;2.80;;;13.30;99.90;;;;;;5381283;26;20039;-75
2024/04/12 05:06:27;;;;;;;6.63;2.70;;;13.40;99.90;;;;;;5396200;26;20077;-75
2024/04/12 05:09:00;;;;;;;5.93;2.95;;;13.40;99.90;;;;;;5399136;26;20498;-75
2024/04/12 05:11:29;;;;;;;5.07;2.88;;;13.40;99.90;;;;;;5394725;26;20077;-75
2024/04/12 05:14:05;;;;;;;5.80;3.05;;;13.50;99.90;;;;;;5397507;26;20462;-74
2024/04/12 05:16:32;;;;;;;6.55;3.53;;;13.50;99.90;;;;;;5396693;26;20003;-75
2024/04/12 05:19:07;;;;;;;6.95;3.08;;;13.50;99.90;;;;;;5381232;26;20042;-75
2024/04/12 05:21:42;;;;;;;6.60;3.60;;;13.50;99.90;;;;;;5398551;26;20011;-74
2024/04/12 05:24:11;;;;;;;7.35;3.72;;;13.50;99.90;;;;;;5389241;26;19996;-74
2024/04/12 05:26:41;;;;;;;6.80;3.08;;;13.50;99.90;;;;;;5388348;26;19996;-75
2024/04/12 05:29:17;;;;;;;10.10;3.70;;;13.60;99.90;;;;;;5388054;26;20859;-75
2024/04/12 05:31:42;;;;;;;6.57;3.25;;;13.60;99.90;;;;;;5388074;26;20238;-74
2024/04/12 05:34:18;;;;;;;9.23;3.40;;;13.60;99.90;;;;;;5399865;26;20447;-74
2024/04/12 05:36:44;;;;;;;7.38;3.67;;;13.60;99.90;;;;;;5390889;26;20014;-74
2024/04/12 05:39:11;;;;;;;7.35;3.65;;;13.70;99.90;;;;;;5390235;26;20004;-74
2024/04/12 05:41:44;;;;;;;9.43;3.15;;;13.70;99.90;;;;;;5403645;26;20022;-75
2024/04/12 05:44:14;;;;;;;6.10;3.15;;;13.70;99.90;;;;;;5401998;26;20007;-75
2024/04/12 05:46:41;;;;;;;7.40;3.10;;;13.70;99.90;;;;;;5402714;26;20011;-75
2024/04/12 05:49:11;;;;;;;8.15;3.50;;;13.80;99.90;;;;;;5394865;26;20000;-75
2024/04/12 05:51:41;;;;;;;6.93;3.47;;;13.80;99.90;;;;;;5399132;26;20000;-75
2024/04/12 05:54:10;;;;;;;8.50;3.35;;;13.80;99.90;;;;;;5393653;26;19999;-75
2024/04/12 05:56:40;;;;;;;4.90;2.95;;;13.90;99.90;;;;;;5391922;26;20527;-74
2024/04/12 05:59:13;;;;;;;5.35;2.88;;;13.90;99.90;;;;;;5391251;26;20023;-75
2024/04/12 06:01:46;;;;;;;9.77;3.97;;;13.90;99.90;;;;;;5395895;26;19997;-75
2024/04/12 06:04:19;;;;;;;8.30;3.10;;;14.00;99.90;;;;;;5391431;26;20325;-75
2024/04/12 06:06:46;;;;;;;8.32;3.55;;;14.00;99.90;;;;;;5388443;26;20077;-74
2024/04/12 06:09:19;;;;;;;7.10;3.05;;;14.10;99.90;;;;;;5389560;26;20004;-74
2024/04/12 06:11:50;;;;;;;9.00;3.10;;;14.10;99.90;;;;;;5384453;26;20436;-75
2024/04/12 06:14:22;;;;;;;9.73;4.20;;;14.20;99.90;;;;;;5399657;26;20064;-75
2024/04/12 06:16:51;;;;;;;8.82;3.30;;;14.20;99.90;;;;;;5392023;26;20036;-74
2024/04/12 06:19:18;;;;;;;11.87;3.83;;;14.30;99.90;;;;;;5398885;26;19999;-75
2024/04/12 06:21:45;;;;;;;8.32;3.30;;;14.50;99.90;;;;;;5405142;26;20516;-74
2024/04/12 06:24:15;;;;;;;8.60;3.40;;;14.70;99.90;;;;;;5400863;26;20021;-75
2024/04/12 06:26:42;;;;;;;6.80;3.10;;;15.10;99.90;;;;;;5399984;26;20409;-75
2024/04/12 06:29:08;;;;;;;5.50;2.70;;;15.80;99.90;;;;;;5387809;26;20013;-75
2024/04/12 06:31:36;;;;;;;6.90;2.85;;;16.30;99.90;;;;;;5395841;26;20465;-75
2024/04/12 06:34:04;;;;;;;7.88;2.63;;;16.50;99.90;;;;;;5388347;26;20011;-75
2024/04/12 06:36:34;;;;;;;5.05;2.20;;;16.50;99.90;;;;;;5396646;26;20402;-75
2024/04/12 06:39:04;;;;;;;4.30;2.22;;;16.50;99.90;;;;;;5407131;26;20455;-75
2024/04/12 06:41:31;;;;;;;6.03;3.13;;;16.50;99.90;;;;;;5383349;26;20000;-76
2024/04/12 06:43:57;;;;;;;7.72;2.58;;;16.40;99.90;;;;;;5387807;26;20007;-75
2024/04/12 06:46:27;;;;;;;7.13;2.83;;;16.30;99.90;;;;;;5392317;26;20007;-75
2024/04/12 06:48:56;;;;;;;;;;;16.10;99.90;;;;;;5395039;26;20000;-75
2024/04/12 06:51:24;;;;;;;8.30;2.88;;;15.90;99.90;;;;;;5405667;26;19925;-75
2024/04/12 06:53:50;;;;;;;11.90;2.80;;;15.80;99.90;;;;;;5395676;26;20141;-74
2024/04/12 06:56:17;;;;;;;8.43;2.90;;;15.60;99.90;;;;;;5399910;26;20043;-75
2024/04/12 06:58:46;;;;;;;6.65;2.50;;;15.60;99.90;;;;;;5391112;26;20015;-75
2024/04/12 07:01:12;;;;;;;10.38;2.75;;;15.50;99.90;;;;;;5396772;26;20000;-74
2024/04/12 07:03:45;;;;;;;6.07;2.20;;;15.50;99.90;;;;;;5392837;26;19999;-74
2024/04/12 07:06:14;;;;;;;9.57;3.00;;;15.40;99.90;;;;;;5397039;26;20026;-74
2024/04/12 07:08:49;;;;;;;7.75;2.75;;;15.40;99.90;;;;;;5402651;26;20080;-74
2024/04/12 07:11:19;;;;;;;9.90;3.22;;;15.50;99.90;;;;;;5400168;26;20444;-74
2024/04/12 07:13:51;;;;;;;8.95;2.92;;;15.50;99.90;;;;;;5402544;26;20000;-73
2024/04/12 07:16:20;;;;;;;6.88;2.63;;;15.60;99.90;;;;;;5394557;26;20752;-76
2024/04/12 07:18:50;;;;;;;12.10;2.78;;;15.70;99.90;;;;;;5393972;26;20000;-74
2024/04/12 07:21:15;;;;;;;7.82;2.17;;;15.70;99.90;;;;;;5392245;26;19999;-75
2024/04/12 07:23:51;;;;;;;5.10;2.25;;;15.70;99.90;;;;;;5396966;26;20077;-74
2024/04/12 07:26:24;;;;;;;8.68;2.88;;;15.70;99.90;;;;;;5395844;26;20048;-75
2024/04/12 07:28:59;;;;;;;6.75;2.33;;;15.70;99.90;;;;;;5397429;26;20000;-74
2024/04/12 07:31:30;;;;;;;6.15;2.10;;;15.60;99.90;;;;;;5395125;26;20015;-74
2024/04/12 07:34:05;;;;;;;8.32;2.53;;;15.60;99.90;;;;;;5401187;26;20020;-74
2024/04/12 07:36:31;;;;;;;3.78;2.28;;;15.70;99.90;;;;;;5385590;26;20016;-75
2024/04/12 07:39:01;;;;;;;5.85;2.15;;;15.70;99.90;;;;;;5388387;26;20014;-74
2024/04/12 07:41:31;;;;;;;8.88;2.72;;;15.90;99.90;;;;;;5399469;26;20019;-73
2024/04/12 07:43:57;;;;;;;;;;;16.10;99.90;;;;;;5397424;26;20000;-74
2024/04/12 07:46:27;;;;;;;10.45;2.40;;;16.30;99.90;;;;;;5391064;26;19935;-75
2024/04/12 07:48:57;;;;;;;5.93;2.40;;;16.40;99.90;;;;;;5393345;26;19999;-74
2024/04/12 07:51:28;;;;;;;6.87;2.63;;;16.60;99.90;;;;;;5394713;26;20015;-75
2024/04/12 07:53:54;;;;;;;6.55;2.42;;;16.70;99.90;;;;;;5385421;26;20008;-75
2024/04/12 07:56:21;;;;;;;10.18;2.63;;;16.70;99.90;;;;;;5399683;26;20003;-74
2024/04/12 07:59:10;;;;;;;5.72;2.47;;;16.80;99.90;;;;;;5391824;26;20004;-74
2024/04/12 08:01:37;;;;;;;6.10;2.03;;;16.80;99.90;;;;;;5389975;26;20014;-75
2024/04/12 08:04:06;;;;;;;13.88;2.97;;;16.90;99.90;;;;;;5387802;26;20010;-74
2024/04/12 08:06:55;;;;;;;16.42;2.92;;;17.00;99.90;;;;;;5383631;26;20009;-73
2024/04/12 08:09:44;;;;;;;9.35;2.15;;;17.20;99.90;;;;;;5391739;26;20007;-73
2024/04/12 08:12:14;;;;;;;5.35;1.95;;;17.40;99.90;;;;;;5396369;26;20011;-74
2024/04/12 08:14:51;;;;;;;7.88;2.28;;;17.40;99.90;;;;;;5396363;26;20440;-74
2024/04/12 08:17:27;;;;;;;7.93;2.92;;;17.40;99.90;;;;;;5392406;26;20004;-74
2024/04/12 08:19:56;;;;;;;7.75;2.67;;;17.50;99.90;;;;;;5389522;26;20000;-74
2024/04/12 08:22:25;;;;;;;5.93;2.10;;;17.60;99.90;;;;;;5389655;26;20000;-76
2024/04/12 08:24:51;;;;;;;6.30;2.17;;;17.70;99.90;;;;;;5389467;26;20004;-74
2024/04/12 08:27:24;;;;;;;6.78;2.28;;;17.80;99.90;;;;;;5396992;26;20043;-73
2024/04/12 08:29:51;;;;;;;6.95;2.17;;;18.00;99.90;;;;;;5393801;26;20043;-74
2024/04/12 08:32:21;;;;;;;5.88;1.73;;;18.10;99.90;;;;;;5388023;26;20077;-74
2024/04/12 08:34:55;;;;;;;4.28;1.70;;;18.10;99.90;;;;;;5383609;26;20023;-74
2024/04/12 08:37:30;;;;;;;8.25;1.92;;;18.20;99.90;;;;;;5393072;26;20336;-74
2024/04/12 08:39:56;;;;;;;5.38;1.90;;;18.20;99.90;;;;;;5394719;26;20039;-74
2024/04/12 08:42:32;;;;;;;4.65;2.03;;;18.20;99.90;;;;;;5395761;26;20011;-74
2024/04/12 08:44:59;;;;;;;4.60;1.55;;;18.20;99.90;;;;;;5395864;26;20048;-73
2024/04/12 08:50:04;;;;;;;4.00;1.55;;;18.50;99.90;;;;;;5402402;26;20019;-72
2024/04/12 08:52:43;;;;;;;3.70;1.40;;;18.60;99.90;;;;;;5395973;26;20000;-73
2024/04/12 08:55:20;;;;;;;4.75;1.60;;;18.70;99.90;;;;;;5402061;26;19999;-72
2024/04/12 08:57:56;;;;;;;6.38;2.08;;;18.60;99.90;;;;;;5399291;26;20022;-74
2024/04/12 09:00:28;;;;;;;7.25;2.20;;;18.60;99.90;;;;;;5385207;26;20739;-75
2024/04/12 09:02:58;;;;;;;4.22;1.42;;;18.70;99.90;;;;;;5403162;26;20004;-74
2024/04/12 09:05:26;;;;;;;8.88;1.75;;;18.70;99.90;;;;;;5387348;26;20012;-74
2024/04/12 09:07:55;;;;;;;5.55;1.55;;;18.70;99.90;;;;;;5389439;26;21458;-74
2024/04/12 09:10:21;;;;;;;5.17;1.33;;;18.80;99.90;;;;;;5403254;26;20003;-75
2024/04/12 09:12:47;;;;;;;2.83;1.00;;;19.00;99.90;;;;;;5391848;26;20620;-75
2024/04/12 09:15:27;;;;;;;3.22;1.40;;;19.00;99.90;;;;;;5391865;26;20077;-75
2024/04/12 09:18:07;;;;;;;5.45;1.88;;;19.10;99.90;;;;;;5394345;26;20031;-73
2024/04/12 09:20:37;;;;;;;5.57;0.93;;;19.20;99.90;;;;;;5387424;26;20043;-75
2024/04/12 09:23:19;;;;;;;2.95;1.42;;;19.20;99.90;;;;;;5391128;26;20003;-74
2024/04/12 09:25:55;;;;;;;2.97;0.90;;;19.30;99.90;;;;;;5399045;26;20414;-74
2024/04/12 09:28:40;;;;;;;6.85;1.00;;;19.40;99.90;;;;;;5422622;26;20363;-74
2024/04/12 09:33:56;;;;;;;4.55;1.30;;;19.60;99.90;;;;;;5398275;26;20097;-74
2024/04/12 09:36:52;;;;;;;4.72;1.48;;;19.60;99.90;;;;;;5387494;26;20077;-75
2024/04/12 09:39:20;;;;;;;3.95;1.00;;;19.70;99.90;;;;;;5392107;26;20005;-74
2024/04/12 09:42:03;;;;;;;7.18;0.70;;;19.90;99.90;;;;;;5397771;26;21411;-74
2024/04/12 09:44:38;;;;;;;3.47;0.90;;;20.00;99.90;;;;;;5390303;26;20000;-73
2024/04/12 10:37:28;;;;;;;2.35;0.60;;;20.90;99.90;;;;;;5399754;26;20026;-73
2024/04/12 10:39:55;;;;;;;3.10;0.52;;;20.90;99.90;;;;;;5386886;26;20077;-73
2024/04/12 10:42:31;;;;;;;2.22;0.38;;;20.90;99.90;;;;;;5395762;26;20004;-73
2024/04/12 10:45:01;;;;;;;4.10;0.98;;;20.80;99.90;;;;;;5401382;26;20010;-73
2024/04/12 10:47:28;;;;;;;1.08;0.50;;;20.70;99.90;;;;;;5393171;26;20015;-73
2024/04/12 10:49:56;;;;;;;0.82;0.30;;;20.80;99.90;;;;;;5396212;26;20023;-74
2024/04/12 10:52:29;;;;;;;1.75;0.30;;;20.90;99.90;;;;;;5403125;26;20621;-74
2024/04/12 10:55:09;;;;;;;3.05;0.50;;;20.90;99.90;;;;;;5395238;26;20016;-74
2024/04/12 10:57:48;;;;;;;3.63;0.47;;;20.90;99.90;;;;;;5402562;26;20010;-74
2024/04/12 11:00:19;;;;;;;3.15;0.25;;;20.90;99.90;;;;;;5391877;26;19995;-74
2024/04/12 11:02:46;;;;;;;1.42;0.30;;;20.90;99.90;;;;;;5393511;26;20004;-73
2024/04/12 11:07:49;;;;;;;0.82;0.20;;;21.10;99.90;;;;;;5397646;26;19996;-74
2024/04/12 11:10:39;;;;;;;;;;;21.40;99.90;;;;;;5392514;26;20011;-73
2024/04/12 11:13:08;;;;;;;1.52;0.20;;;21.50;99.90;;;;;;5395537;26;19932;-74
2024/04/12 11:31:54;;;;;;;1.92;0.20;;;21.30;99.90;;;;;;5391906;26;20072;-75
2024/04/12 11:34:24;;;;;;;0.40;0.10;;;21.20;99.90;;;;;;5392537;26;20001;-73
2024/04/12 11:36:53;;;;;;;3.40;0.32;;;21.20;99.90;;;;;;5400272;26;20018;-72
2024/04/12 11:39:26;;;;;;;1.80;0.40;;;21.20;99.90;;;;;;5399034;26;20003;-73
2024/04/12 11:41:55;;;;;;;1.23;0.22;;;21.20;99.90;;;;;;5397839;26;20468;-74
2024/04/12 11:44:21;;;;;;;4.25;0.30;;;21.30;99.90;;;;;;5388101;26;20004;-74
2024/04/12 11:46:55;;;;;;;3.53;1.00;;;21.20;99.90;;;;;;5389531;26;20000;-74
2024/04/12 11:49:28;;;;;;;1.38;0.40;;;21.20;99.90;;;;;;5391166;26;20056;-74
2024/04/12 11:51:57;;;;;;;2.92;0.43;;;21.10;99.90;;;;;;5392758;26;20000;-75
2024/04/12 11:54:29;;;;;;;2.28;0.17;;;21.00;99.90;;;;;;5391244;26;19996;-75
2024/04/12 11:57:01;;;;;;;1.52;0.30;;;21.00;99.90;;;;;;5392772;26;20010;-74
2024/04/12 11:59:29;;;;;;;2.00;0.32;;;20.90;99.90;;;;;;5386442;26;20003;-73
2024/04/12 12:01:58;;;;;;;0.50;0.20;;;21.00;99.90;;;;;;5390324;26;20014;-74
2024/04/12 12:04:28;;;;;;;1.30;0.10;;;21.00;99.90;;;;;;5386485;26;20130;-75
2024/04/12 12:06:55;;;;;;;2.65;0.63;;;21.00;99.90;;;;;;5393190;26;20007;-73
2024/04/12 12:09:20;;;;;;;1.27;0.25;;;20.90;99.90;;;;;;5402828;26;20069;-75
2024/04/12 12:11:49;;;;;;;2.25;0.43;;;20.90;99.90;;;;;;5401022;26;20011;-72
2024/04/12 12:14:18;;;;;;;1.92;0.28;;;20.90;99.90;;;;;;5386459;26;20000;-73
2024/04/12 12:16:44;;;;;;;1.95;0.20;;;20.80;99.90;;;;;;5394180;26;20510;-73
2024/04/12 12:19:10;;;;;;;0.75;0.47;;;20.80;99.90;;;;;;5391476;26;20007;-73
2024/04/12 12:21:36;;;;;;;2.15;0.43;;;20.70;99.90;;;;;;5395287;26;20320;-74
2024/04/12 12:24:03;;;;;;;2.55;0.38;;;20.70;99.90;;;;;;5393817;26;20010;-73
2024/04/12 12:26:31;;;;;;;4.97;0.40;;;20.70;99.90;;;;;;5393496;26;20015;-74
2024/04/12 12:29:00;;;;;;;2.75;0.30;;;20.70;99.90;;;;;;5394854;26;20011;-73
2024/04/12 12:31:27;;;;;;;2.03;0.60;;;20.80;99.90;;;;;;5390067;26;19999;-73
2024/04/12 12:33:53;;;;;;;1.98;0.32;;;20.80;99.90;;;;;;5384150;26;20044;-73
2024/04/12 12:36:21;;;;;;;2.25;0.20;;;20.80;99.90;;;;;;5379763;26;20012;-73
2024/04/12 12:38:48;;;;;;;0.90;0.35;;;20.80;99.90;;;;;;5383448;26;20011;-74
2024/04/12 12:41:15;;;;;;;1.55;0.13;;;20.70;99.90;;;;;;5397334;26;19995;-73
2024/04/12 12:43:44;;;;;;;1.33;0.30;;;20.60;99.90;;;;;;5391402;26;20014;-74
2024/04/12 12:46:15;;;;;;;1.25;0.30;;;20.50;99.90;;;;;;5400102;26;20622;-74
2024/04/12 12:48:41;;;;;;;0.40;0.10;;;20.50;99.90;;;;;;5388587;26;20076;-75
2024/04/12 12:51:10;;;;;;;1.02;0.20;;;20.40;99.90;;;;;;5389073;26;20008;-75
2024/04/12 12:53:36;;;;;;;3.90;0.23;;;20.50;99.90;;;;;;5391160;26;20064;-74
2024/04/12 12:56:08;;;;;;;0.77;0.17;;;20.40;99.90;;;;;;5390738;26;20053;-74
2024/04/12 12:58:34;;;;;;;9.57;0.32;;;20.40;99.90;;;;;;5396713;26;20435;-74
2024/04/12 13:01:00;;;;;;;3.42;0.22;;;20.60;99.90;;;;;;5396182;26;20011;-75
2024/04/12 13:03:30;;;;;;;2.55;0.15;;;20.50;99.90;;;;;;5394954;26;20026;-75
2024/04/12 13:05:56;;;;;;;2.50;0.30;;;20.50;99.90;;;;;;5404413;26;19996;-74
2024/04/12 13:08:25;;;;;;;1.08;0.20;;;20.50;99.90;;;;;;5384651;26;20004;-74
2024/04/12 13:10:56;;;;;;;3.40;0.20;;;20.50;99.90;;;;;;5387452;26;20005;-72
2024/04/12 13:13:23;;;;;;;1.95;0.55;;;20.60;99.90;;;;;;5398672;26;20548;-72
2024/04/12 13:15:55;;;;;;;3.35;0.47;;;20.70;99.90;;;;;;5394349;26;20052;-72
2024/04/12 13:18:27;;;;;;;1.80;0.43;;;20.80;99.90;;;;;;5396374;26;20007;-73
2024/04/12 13:20:54;;;;;;;1.02;0.30;;;20.90;99.90;;;;;;5402817;26;20008;-73
2024/04/12 13:23:24;;;;;;;4.30;0.25;;;21.00;99.90;;;;;;5390813;26;20474;-74
2024/04/12 13:25:50;;;;;;;;;;;21.10;99.90;;;;;;5394198;26;20004;-73
2024/04/12 13:28:17;;;;;;;1.85;0.20;;;21.20;99.90;;;;;;5392819;26;20275;-73
2024/04/12 13:30:43;;;;;;;1.35;0.43;;;21.30;99.90;;;;;;5388930;26;20003;-73
2024/04/12 13:33:09;;;;;;;1.48;0.30;;;21.30;99.90;;;;;;5395661;26;20006;-72
2024/04/12 13:35:40;;;;;;;2.38;0.32;;;21.20;99.90;;;;;;5397733;26;20458;-72
2024/04/12 13:38:12;;;;;;;1.90;0.30;;;21.20;99.90;;;;;;5404616;26;20049;-73
2024/04/12 13:40:42;;;;;;;1.55;0.35;;;21.20;99.90;;;;;;5397148;26;20000;-75
2024/04/12 13:43:14;;;;;;;1.42;0.20;;;21.20;99.90;;;;;;5402863;26;20000;-73
2024/04/12 13:51:18;;;;;;;1.67;0.47;;;21.10;99.90;;;;;;5400474;26;20048;-75
2024/04/12 13:53:43;;;;;;;2.90;0.32;;;21.10;99.90;;;;;;5389359;26;19996;-74
2024/04/12 13:59:10;;;;;;;1.60;0.40;;;20.90;99.90;;;;;;5398363;26;20411;-74
2024/04/12 14:01:40;;;;;;;1.40;0.25;;;20.80;99.90;;;;;;5395300;26;20017;-73
2024/04/12 14:04:09;;;;;;;1.10;0.20;;;20.80;99.90;;;;;;5397232;26;20077;-73
2024/04/12 14:06:36;;;;;;;1.00;0.10;;;20.70;99.90;;;;;;5393556;26;20014;-73
2024/04/12 14:09:12;;;;;;;2.25;0.50;;;20.80;99.90;;;;;;5392085;26;20226;-72
2024/04/12 14:11:39;;;;;;;1.88;0.20;;;20.90;99.90;;;;;;5398394;26;19999;-73
2024/04/12 14:14:04;;;;;;;3.97;0.73;;;21.00;99.90;;;;;;5414251;26;19995;-73
2024/04/12 14:16:41;;;;;;;0.85;0.10;;;21.10;99.90;;;;;;5390755;26;20019;-73
2024/04/12 14:19:28;;;;;;;2.50;0.22;;;21.10;99.90;;;;;;5396217;26;20016;-73
2024/04/12 14:21:54;;;;;;;0.28;0.10;;;21.20;99.90;;;;;;5396751;26;20384;-73
2024/04/12 14:27:06;;;;;;;5.00;0.17;;;21.10;99.90;;;;;;5387531;26;20011;-73
2024/04/12 14:29:33;;;;;;;3.10;0.25;;;21.00;99.90;;;;;;5386833;26;20005;-74
2024/04/12 14:32:05;;;;;;;1.30;0.30;;;20.90;99.90;;;;;;5391330;26;20015;-74
2024/04/12 14:34:35;;;;;;;2.28;0.38;;;20.90;99.90;;;;;;5394026;26;20001;-73